sensor_id;sensor_type;location;lat;lon;timestamp;P1;durP1;ratioP1;P2;durP2;ratioP2
8007;SDS011;4049;49.468;11.200;2023-02-22T00:00:08;5.03;;;2.40;;
8007;SDS011;4049;49.468;11.200;2023-02-22T00:02:43;5.43;;;3.00;;
8007;SDS011;4049;49.468;11.200;2023-02-22T00:05:12;3.50;;;2.50;;
8007;SDS011;4049;49.468;11.200;2023-02-22T00:07:40;3.30;;;2.40;;
8007;SDS011;4049;49.468;11.200;2023-02-22T00:10:09;4.73;;;2.33;;
8007;SDS011;4049;49.468;11.200;2023-02-22T00:12:38;3.27;;;2.57;;
8007;SDS011;4049;49.468;11.200;2023-02-22T00:15:05;2.73;;;2.23;;
8007;SDS011;4049;49.468;11.200;2023-02-22T00:17:33;3.27;;;2.20;;
8007;SDS011;4049;49.468;11.200;2023-02-22T00:20:00;4.13;;;2.70;;
8007;SDS011;4049;49.468;11.200;2023-02-22T00:22:29;3.47;;;2.30;;
8007;SDS011;4049;49.468;11.200;2023-02-22T00:24:57;3.73;;;2.67;;
8007;SDS011;4049;49.468;11.200;2023-02-22T00:27:24;5.00;;;2.87;;
8007;SDS011;4049;49.468;11.200;2023-02-22T00:29:51;4.50;;;2.57;;
8007;SDS011;4049;49.468;11.200;2023-02-22T00:32:20;2.83;;;2.27;;
8007;SDS011;4049;49.468;11.200;2023-02-22T00:34:49;2.83;;;2.10;;
8007;SDS011;4049;49.468;11.200;2023-02-22T00:37:18;5.20;;;2.90;;
8007;SDS011;4049;49.468;11.200;2023-02-22T00:39:46;4.13;;;2.50;;
8007;SDS011;4049;49.468;11.200;2023-02-22T00:42:14;4.63;;;2.50;;
8007;SDS011;4049;49.468;11.200;2023-02-22T00:44:42;3.10;;;2.30;;
8007;SDS011;4049;49.468;11.200;2023-02-22T00:47:10;3.10;;;2.40;;
8007;SDS011;4049;49.468;11.200;2023-02-22T00:49:36;3.63;;;2.40;;
8007;SDS011;4049;49.468;11.200;2023-02-22T00:52:04;4.13;;;3.30;;
8007;SDS011;4049;49.468;11.200;2023-02-22T00:54:31;7.60;;;2.70;;
8007;SDS011;4049;49.468;11.200;2023-02-22T00:56:58;4.07;;;2.83;;
8007;SDS011;4049;49.468;11.200;2023-02-22T00:59:26;4.00;;;2.70;;
8007;SDS011;4049;49.468;11.200;2023-02-22T01:01:55;3.97;;;2.70;;
8007;SDS011;4049;49.468;11.200;2023-02-22T01:04:22;4.13;;;2.90;;
8007;SDS011;4049;49.468;11.200;2023-02-22T01:06:49;3.20;;;2.90;;
8007;SDS011;4049;49.468;11.200;2023-02-22T01:09:16;4.93;;;3.03;;
8007;SDS011;4049;49.468;11.200;2023-02-22T01:11:42;4.23;;;3.00;;
8007;SDS011;4049;49.468;11.200;2023-02-22T01:14:09;3.03;;;2.70;;
8007;SDS011;4049;49.468;11.200;2023-02-22T01:16:37;4.60;;;2.90;;
8007;SDS011;4049;49.468;11.200;2023-02-22T01:19:04;2.33;;;2.13;;
8007;SDS011;4049;49.468;11.200;2023-02-22T01:21:31;6.17;;;2.40;;
8007;SDS011;4049;49.468;11.200;2023-02-22T01:23:57;5.40;;;2.63;;
8007;SDS011;4049;49.468;11.200;2023-02-22T01:26:24;2.57;;;2.30;;
8007;SDS011;4049;49.468;11.200;2023-02-22T01:28:51;4.07;;;2.70;;
8007;SDS011;4049;49.468;11.200;2023-02-22T01:31:18;3.27;;;2.50;;
8007;SDS011;4049;49.468;11.200;2023-02-22T01:33:46;3.60;;;2.67;;
8007;SDS011;4049;49.468;11.200;2023-02-22T01:36:14;3.97;;;2.83;;
8007;SDS011;4049;49.468;11.200;2023-02-22T01:38:43;4.57;;;2.80;;
8007;SDS011;4049;49.468;11.200;2023-02-22T01:41:10;3.27;;;2.50;;
8007;SDS011;4049;49.468;11.200;2023-02-22T01:43:37;3.60;;;3.00;;
8007;SDS011;4049;49.468;11.200;2023-02-22T01:46:04;4.53;;;3.07;;
8007;SDS011;4049;49.468;11.200;2023-02-22T01:48:34;5.33;;;2.53;;
8007;SDS011;4049;49.468;11.200;2023-02-22T01:51:08;5.43;;;3.00;;
8007;SDS011;4049;49.468;11.200;2023-02-22T01:53:39;3.00;;;2.63;;
8007;SDS011;4049;49.468;11.200;2023-02-22T01:56:10;5.60;;;3.07;;
8007;SDS011;4049;49.468;11.200;2023-02-22T01:58:39;4.27;;;2.73;;
8007;SDS011;4049;49.468;11.200;2023-02-22T02:01:08;4.87;;;2.63;;
8007;SDS011;4049;49.468;11.200;2023-02-22T02:03:36;5.47;;;2.80;;
8007;SDS011;4049;49.468;11.200;2023-02-22T02:06:07;4.13;;;2.83;;
8007;SDS011;4049;49.468;11.200;2023-02-22T02:08:39;3.43;;;2.57;;
8007;SDS011;4049;49.468;11.200;2023-02-22T02:11:14;4.43;;;2.97;;
8007;SDS011;4049;49.468;11.200;2023-02-22T02:13:42;3.47;;;2.70;;
8007;SDS011;4049;49.468;11.200;2023-02-22T02:16:09;3.17;;;2.73;;
8007;SDS011;4049;49.468;11.200;2023-02-22T02:18:36;3.93;;;3.03;;
8007;SDS011;4049;49.468;11.200;2023-02-22T02:21:24;3.37;;;2.70;;
8007;SDS011;4049;49.468;11.200;2023-02-22T02:24:11;3.83;;;2.70;;
8007;SDS011;4049;49.468;11.200;2023-02-22T02:26:58;3.67;;;2.67;;
8007;SDS011;4049;49.468;11.200;2023-02-22T02:29:42;6.23;;;3.00;;
8007;SDS011;4049;49.468;11.200;2023-02-22T02:32:31;3.90;;;2.80;;
8007;SDS011;4049;49.468;11.200;2023-02-22T02:35:05;5.07;;;3.10;;
8007;SDS011;4049;49.468;11.200;2023-02-22T02:37:40;3.93;;;2.70;;
8007;SDS011;4049;49.468;11.200;2023-02-22T02:40:15;6.13;;;3.00;;
8007;SDS011;4049;49.468;11.200;2023-02-22T02:42:49;3.53;;;2.83;;
8007;SDS011;4049;49.468;11.200;2023-02-22T02:45:20;3.27;;;2.67;;
8007;SDS011;4049;49.468;11.200;2023-02-22T02:47:54;6.00;;;3.10;;
8007;SDS011;4049;49.468;11.200;2023-02-22T02:50:24;5.50;;;2.57;;
8007;SDS011;4049;49.468;11.200;2023-02-22T02:52:54;4.03;;;2.80;;
8007;SDS011;4049;49.468;11.200;2023-02-22T02:55:24;3.77;;;3.17;;
8007;SDS011;4049;49.468;11.200;2023-02-22T02:57:54;3.50;;;2.67;;
8007;SDS011;4049;49.468;11.200;2023-02-22T03:00:22;4.50;;;2.70;;
8007;SDS011;4049;49.468;11.200;2023-02-22T03:02:59;3.83;;;2.87;;
8007;SDS011;4049;49.468;11.200;2023-02-22T03:05:38;7.53;;;3.60;;
8007;SDS011;4049;49.468;11.200;2023-02-22T03:08:27;4.47;;;2.73;;
8007;SDS011;4049;49.468;11.200;2023-02-22T03:11:03;3.80;;;3.10;;
8007;SDS011;4049;49.468;11.200;2023-02-22T03:13:39;4.23;;;3.03;;
8007;SDS011;4049;49.468;11.200;2023-02-22T03:16:12;5.70;;;3.50;;
8007;SDS011;4049;49.468;11.200;2023-02-22T03:18:49;5.20;;;3.07;;
8007;SDS011;4049;49.468;11.200;2023-02-22T03:21:22;4.77;;;2.90;;
8007;SDS011;4049;49.468;11.200;2023-02-22T03:23:57;5.63;;;3.20;;
8007;SDS011;4049;49.468;11.200;2023-02-22T03:26:29;3.87;;;2.83;;
8007;SDS011;4049;49.468;11.200;2023-02-22T03:28:59;3.47;;;2.63;;
8007;SDS011;4049;49.468;11.200;2023-02-22T03:31:30;4.03;;;3.07;;
8007;SDS011;4049;49.468;11.200;2023-02-22T03:34:04;3.63;;;3.00;;
8007;SDS011;4049;49.468;11.200;2023-02-22T03:36:35;8.07;;;3.10;;
8007;SDS011;4049;49.468;11.200;2023-02-22T03:39:06;5.67;;;3.17;;
8007;SDS011;4049;49.468;11.200;2023-02-22T03:41:36;5.00;;;3.40;;
8007;SDS011;4049;49.468;11.200;2023-02-22T03:44:06;5.37;;;3.27;;
8007;SDS011;4049;49.468;11.200;2023-02-22T03:46:36;3.47;;;3.10;;
8007;SDS011;4049;49.468;11.200;2023-02-22T03:49:08;5.43;;;3.33;;
8007;SDS011;4049;49.468;11.200;2023-02-22T03:51:37;4.27;;;3.40;;
8007;SDS011;4049;49.468;11.200;2023-02-22T03:54:04;4.23;;;3.10;;
8007;SDS011;4049;49.468;11.200;2023-02-22T03:56:34;3.73;;;3.00;;
8007;SDS011;4049;49.468;11.200;2023-02-22T03:59:11;3.93;;;3.00;;
8007;SDS011;4049;49.468;11.200;2023-02-22T04:01:40;5.03;;;3.57;;
8007;SDS011;4049;49.468;11.200;2023-02-22T04:04:09;4.43;;;3.03;;
8007;SDS011;4049;49.468;11.200;2023-02-22T04:06:35;3.70;;;3.30;;
8007;SDS011;4049;49.468;11.200;2023-02-22T04:09:02;3.87;;;2.93;;
8007;SDS011;4049;49.468;11.200;2023-02-22T04:11:29;4.23;;;3.03;;
8007;SDS011;4049;49.468;11.200;2023-02-22T04:13:56;4.10;;;3.13;;
8007;SDS011;4049;49.468;11.200;2023-02-22T04:16:23;5.03;;;3.37;;
8007;SDS011;4049;49.468;11.200;2023-02-22T04:18:49;6.20;;;3.33;;
8007;SDS011;4049;49.468;11.200;2023-02-22T04:21:18;5.47;;;3.53;;
8007;SDS011;4049;49.468;11.200;2023-02-22T04:23:44;5.23;;;3.10;;
8007;SDS011;4049;49.468;11.200;2023-02-22T04:26:11;4.97;;;3.07;;
8007;SDS011;4049;49.468;11.200;2023-02-22T04:28:38;6.03;;;3.30;;
8007;SDS011;4049;49.468;11.200;2023-02-22T04:31:05;5.00;;;3.40;;
8007;SDS011;4049;49.468;11.200;2023-02-22T04:33:32;4.93;;;2.93;;
8007;SDS011;4049;49.468;11.200;2023-02-22T04:35:58;4.23;;;2.67;;
8007;SDS011;4049;49.468;11.200;2023-02-22T04:38:26;5.20;;;3.57;;
8007;SDS011;4049;49.468;11.200;2023-02-22T04:40:53;4.97;;;3.30;;
8007;SDS011;4049;49.468;11.200;2023-02-22T04:43:20;8.03;;;3.93;;
8007;SDS011;4049;49.468;11.200;2023-02-22T04:45:47;7.73;;;3.27;;
8007;SDS011;4049;49.468;11.200;2023-02-22T04:48:14;4.53;;;3.13;;
8007;SDS011;4049;49.468;11.200;2023-02-22T04:50:40;8.80;;;3.87;;
8007;SDS011;4049;49.468;11.200;2023-02-22T04:53:07;4.20;;;3.40;;
8007;SDS011;4049;49.468;11.200;2023-02-22T04:55:36;5.10;;;3.40;;
8007;SDS011;4049;49.468;11.200;2023-02-22T04:58:03;4.07;;;2.87;;
8007;SDS011;4049;49.468;11.200;2023-02-22T05:00:29;8.47;;;3.07;;
8007;SDS011;4049;49.468;11.200;2023-02-22T05:02:56;5.20;;;3.57;;
8007;SDS011;4049;49.468;11.200;2023-02-22T05:05:23;5.07;;;3.57;;
8007;SDS011;4049;49.468;11.200;2023-02-22T05:07:50;5.43;;;3.70;;
8007;SDS011;4049;49.468;11.200;2023-02-22T05:10:17;5.20;;;3.50;;
8007;SDS011;4049;49.468;11.200;2023-02-22T05:12:46;5.60;;;3.10;;
8007;SDS011;4049;49.468;11.200;2023-02-22T05:15:14;4.20;;;3.17;;
8007;SDS011;4049;49.468;11.200;2023-02-22T05:17:42;6.60;;;2.97;;
8007;SDS011;4049;49.468;11.200;2023-02-22T05:20:10;4.73;;;3.30;;
8007;SDS011;4049;49.468;11.200;2023-02-22T05:22:42;4.80;;;3.30;;
8007;SDS011;4049;49.468;11.200;2023-02-22T05:25:09;6.73;;;3.60;;
8007;SDS011;4049;49.468;11.200;2023-02-22T05:27:36;5.13;;;3.07;;
8007;SDS011;4049;49.468;11.200;2023-02-22T05:30:04;6.23;;;4.50;;
8007;SDS011;4049;49.468;11.200;2023-02-22T05:32:33;9.43;;;4.47;;
8007;SDS011;4049;49.468;11.200;2023-02-22T05:35:00;4.57;;;3.27;;
8007;SDS011;4049;49.468;11.200;2023-02-22T05:37:26;4.33;;;3.13;;
8007;SDS011;4049;49.468;11.200;2023-02-22T05:39:53;5.43;;;3.70;;
8007;SDS011;4049;49.468;11.200;2023-02-22T05:42:20;4.63;;;3.20;;
8007;SDS011;4049;49.468;11.200;2023-02-22T05:44:47;3.83;;;3.10;;
8007;SDS011;4049;49.468;11.200;2023-02-22T05:47:15;6.87;;;3.33;;
8007;SDS011;4049;49.468;11.200;2023-02-22T05:49:42;5.43;;;3.53;;
8007;SDS011;4049;49.468;11.200;2023-02-22T05:52:11;5.33;;;3.60;;
8007;SDS011;4049;49.468;11.200;2023-02-22T05:54:37;6.67;;;3.47;;
8007;SDS011;4049;49.468;11.200;2023-02-22T05:57:04;6.90;;;4.07;;
8007;SDS011;4049;49.468;11.200;2023-02-22T05:59:31;4.47;;;3.20;;
8007;SDS011;4049;49.468;11.200;2023-02-22T06:01:58;5.77;;;3.40;;
8007;SDS011;4049;49.468;11.200;2023-02-22T06:04:26;3.93;;;2.93;;
8007;SDS011;4049;49.468;11.200;2023-02-22T06:06:54;5.37;;;3.53;;
8007;SDS011;4049;49.468;11.200;2023-02-22T06:09:21;4.90;;;3.37;;
8007;SDS011;4049;49.468;11.200;2023-02-22T06:11:48;5.80;;;3.60;;
8007;SDS011;4049;49.468;11.200;2023-02-22T06:14:14;4.87;;;3.83;;
8007;SDS011;4049;49.468;11.200;2023-02-22T06:16:41;6.60;;;3.73;;
8007;SDS011;4049;49.468;11.200;2023-02-22T06:19:08;6.20;;;3.73;;
8007;SDS011;4049;49.468;11.200;2023-02-22T06:21:36;7.53;;;3.63;;
8007;SDS011;4049;49.468;11.200;2023-02-22T06:24:03;7.43;;;3.70;;
8007;SDS011;4049;49.468;11.200;2023-02-22T06:26:30;5.90;;;3.67;;
8007;SDS011;4049;49.468;11.200;2023-02-22T06:28:57;6.27;;;3.67;;
8007;SDS011;4049;49.468;11.200;2023-02-22T06:31:23;5.80;;;3.83;;
8007;SDS011;4049;49.468;11.200;2023-02-22T06:33:50;7.03;;;4.00;;
8007;SDS011;4049;49.468;11.200;2023-02-22T06:36:17;5.90;;;3.87;;
8007;SDS011;4049;49.468;11.200;2023-02-22T06:38:45;5.00;;;3.63;;
8007;SDS011;4049;49.468;11.200;2023-02-22T06:41:12;6.43;;;4.07;;
8007;SDS011;4049;49.468;11.200;2023-02-22T06:43:39;7.43;;;4.30;;
8007;SDS011;4049;49.468;11.200;2023-02-22T06:46:08;7.63;;;4.33;;
8007;SDS011;4049;49.468;11.200;2023-02-22T06:48:35;8.17;;;4.37;;
8007;SDS011;4049;49.468;11.200;2023-02-22T06:51:03;5.33;;;3.97;;
8007;SDS011;4049;49.468;11.200;2023-02-22T06:53:32;8.03;;;4.73;;
8007;SDS011;4049;49.468;11.200;2023-02-22T06:56:00;7.17;;;4.63;;
8007;SDS011;4049;49.468;11.200;2023-02-22T06:58:27;6.47;;;4.07;;
8007;SDS011;4049;49.468;11.200;2023-02-22T07:00:54;10.07;;;4.30;;
8007;SDS011;4049;49.468;11.200;2023-02-22T07:03:21;8.33;;;4.57;;
8007;SDS011;4049;49.468;11.200;2023-02-22T07:05:48;6.93;;;4.30;;
8007;SDS011;4049;49.468;11.200;2023-02-22T07:08:14;7.40;;;4.17;;
8007;SDS011;4049;49.468;11.200;2023-02-22T07:10:41;6.57;;;4.27;;
8007;SDS011;4049;49.468;11.200;2023-02-22T07:13:09;9.20;;;5.00;;
8007;SDS011;4049;49.468;11.200;2023-02-22T07:15:36;9.20;;;4.83;;
8007;SDS011;4049;49.468;11.200;2023-02-22T07:18:03;7.37;;;4.77;;
8007;SDS011;4049;49.468;11.200;2023-02-22T07:20:30;11.17;;;5.33;;
8007;SDS011;4049;49.468;11.200;2023-02-22T07:22:57;7.03;;;4.70;;
8007;SDS011;4049;49.468;11.200;2023-02-22T07:25:25;11.73;;;6.20;;
8007;SDS011;4049;49.468;11.200;2023-02-22T07:27:52;11.17;;;5.80;;
8007;SDS011;4049;49.468;11.200;2023-02-22T07:32:50;7.77;;;5.53;;
8007;SDS011;4049;49.468;11.200;2023-02-22T07:35:18;10.30;;;5.20;;
8007;SDS011;4049;49.468;11.200;2023-02-22T07:37:47;6.80;;;5.10;;
8007;SDS011;4049;49.468;11.200;2023-02-22T07:40:14;9.17;;;5.27;;
8007;SDS011;4049;49.468;11.200;2023-02-22T07:42:51;9.50;;;5.23;;
8007;SDS011;4049;49.468;11.200;2023-02-22T07:45:20;9.50;;;5.87;;
8007;SDS011;4049;49.468;11.200;2023-02-22T07:47:49;10.93;;;5.63;;
8007;SDS011;4049;49.468;11.200;2023-02-22T07:50:16;9.00;;;6.07;;
8007;SDS011;4049;49.468;11.200;2023-02-22T07:52:44;10.60;;;6.33;;
8007;SDS011;4049;49.468;11.200;2023-02-22T07:55:12;12.73;;;6.43;;
8007;SDS011;4049;49.468;11.200;2023-02-22T07:57:40;10.63;;;6.60;;
8007;SDS011;4049;49.468;11.200;2023-02-22T08:00:08;10.67;;;7.07;;
8007;SDS011;4049;49.468;11.200;2023-02-22T08:02:39;10.07;;;6.60;;
8007;SDS011;4049;49.468;11.200;2023-02-22T08:05:06;11.53;;;7.03;;
8007;SDS011;4049;49.468;11.200;2023-02-22T08:07:34;10.57;;;6.27;;
8007;SDS011;4049;49.468;11.200;2023-02-22T08:10:01;12.73;;;8.67;;
8007;SDS011;4049;49.468;11.200;2023-02-22T08:12:30;25.13;;;12.77;;
8007;SDS011;4049;49.468;11.200;2023-02-22T08:14:57;12.17;;;8.67;;
8007;SDS011;4049;49.468;11.200;2023-02-22T08:17:24;9.97;;;7.17;;
8007;SDS011;4049;49.468;11.200;2023-02-22T08:19:52;14.47;;;8.00;;
8007;SDS011;4049;49.468;11.200;2023-02-22T08:22:20;12.47;;;7.97;;
8007;SDS011;4049;49.468;11.200;2023-02-22T08:24:47;11.93;;;7.20;;
8007;SDS011;4049;49.468;11.200;2023-02-22T08:27:21;13.30;;;8.10;;
8007;SDS011;4049;49.468;11.200;2023-02-22T08:29:49;17.53;;;9.03;;
8007;SDS011;4049;49.468;11.200;2023-02-22T08:32:15;13.53;;;8.47;;
8007;SDS011;4049;49.468;11.200;2023-02-22T08:34:42;13.37;;;8.50;;
8007;SDS011;4049;49.468;11.200;2023-02-22T08:37:11;14.83;;;9.10;;
8007;SDS011;4049;49.468;11.200;2023-02-22T08:39:38;17.23;;;10.00;;
8007;SDS011;4049;49.468;11.200;2023-02-22T08:42:05;14.63;;;9.07;;
8007;SDS011;4049;49.468;11.200;2023-02-22T08:44:33;15.37;;;9.43;;
8007;SDS011;4049;49.468;11.200;2023-02-22T08:47:00;13.63;;;9.07;;
8007;SDS011;4049;49.468;11.200;2023-02-22T08:49:27;17.13;;;9.73;;
8007;SDS011;4049;49.468;11.200;2023-02-22T08:51:54;16.37;;;10.57;;
8007;SDS011;4049;49.468;11.200;2023-02-22T08:54:22;21.70;;;10.23;;
8007;SDS011;4049;49.468;11.200;2023-02-22T08:56:49;16.80;;;9.83;;
8007;SDS011;4049;49.468;11.200;2023-02-22T08:59:16;16.00;;;9.30;;
8007;SDS011;4049;49.468;11.200;2023-02-22T09:01:43;20.07;;;10.30;;
8007;SDS011;4049;49.468;11.200;2023-02-22T09:04:10;12.57;;;8.77;;
8007;SDS011;4049;49.468;11.200;2023-02-22T09:06:39;13.83;;;9.20;;
8007;SDS011;4049;49.468;11.200;2023-02-22T09:09:06;16.83;;;9.47;;
8007;SDS011;4049;49.468;11.200;2023-02-22T09:11:34;15.43;;;8.97;;
8007;SDS011;4049;49.468;11.200;2023-02-22T09:14:01;16.33;;;9.77;;
8007;SDS011;4049;49.468;11.200;2023-02-22T09:16:28;17.87;;;10.07;;
8007;SDS011;4049;49.468;11.200;2023-02-22T09:18:56;16.50;;;8.90;;
8007;SDS011;4049;49.468;11.200;2023-02-22T09:21:22;17.30;;;9.87;;
8007;SDS011;4049;49.468;11.200;2023-02-22T09:23:49;15.20;;;9.03;;
8007;SDS011;4049;49.468;11.200;2023-02-22T09:26:18;12.60;;;8.03;;
8007;SDS011;4049;49.468;11.200;2023-02-22T09:28:48;14.37;;;8.97;;
8007;SDS011;4049;49.468;11.200;2023-02-22T09:31:15;13.90;;;9.37;;
8007;SDS011;4049;49.468;11.200;2023-02-22T09:33:42;15.33;;;9.50;;
8007;SDS011;4049;49.468;11.200;2023-02-22T09:36:09;16.97;;;10.07;;
8007;SDS011;4049;49.468;11.200;2023-02-22T09:38:36;18.80;;;10.33;;
8007;SDS011;4049;49.468;11.200;2023-02-22T09:41:07;15.67;;;9.43;;
8007;SDS011;4049;49.468;11.200;2023-02-22T09:43:39;13.13;;;9.50;;
8007;SDS011;4049;49.468;11.200;2023-02-22T09:46:24;16.20;;;9.50;;
8007;SDS011;4049;49.468;11.200;2023-02-22T09:48:59;16.37;;;9.07;;
8007;SDS011;4049;49.468;11.200;2023-02-22T09:51:32;15.30;;;10.17;;
8007;SDS011;4049;49.468;11.200;2023-02-22T09:54:05;12.93;;;8.83;;
8007;SDS011;4049;49.468;11.200;2023-02-22T09:56:39;15.77;;;9.57;;
8007;SDS011;4049;49.468;11.200;2023-02-22T09:59:07;12.93;;;8.43;;
8007;SDS011;4049;49.468;11.200;2023-02-22T10:01:45;15.00;;;8.60;;
8007;SDS011;4049;49.468;11.200;2023-02-22T10:04:19;12.00;;;8.27;;
8007;SDS011;4049;49.468;11.200;2023-02-22T10:06:55;12.83;;;8.13;;
8007;SDS011;4049;49.468;11.200;2023-02-22T10:09:30;12.30;;;7.53;;
8007;SDS011;4049;49.468;11.200;2023-02-22T10:12:03;13.90;;;8.30;;
8007;SDS011;4049;49.468;11.200;2023-02-22T10:14:44;14.53;;;8.07;;
8007;SDS011;4049;49.468;11.200;2023-02-22T10:17:35;14.10;;;8.40;;
8007;SDS011;4049;49.468;11.200;2023-02-22T10:20:15;10.37;;;7.23;;
8007;SDS011;4049;49.468;11.200;2023-02-22T10:22:55;10.37;;;7.70;;
8007;SDS011;4049;49.468;11.200;2023-02-22T10:25:30;11.63;;;7.73;;
8007;SDS011;4049;49.468;11.200;2023-02-22T10:28:02;11.90;;;8.03;;
8007;SDS011;4049;49.468;11.200;2023-02-22T10:30:35;11.93;;;7.67;;
8007;SDS011;4049;49.468;11.200;2023-02-22T10:33:09;10.60;;;7.37;;
8007;SDS011;4049;49.468;11.200;2023-02-22T10:35:40;14.53;;;7.53;;
8007;SDS011;4049;49.468;11.200;2023-02-22T10:38:13;11.77;;;7.30;;
8007;SDS011;4049;49.468;11.200;2023-02-22T10:40:46;10.93;;;7.13;;
8007;SDS011;4049;49.468;11.200;2023-02-22T10:43:15;11.53;;;7.43;;
8007;SDS011;4049;49.468;11.200;2023-02-22T10:45:42;11.70;;;7.03;;
8007;SDS011;4049;49.468;11.200;2023-02-22T10:48:11;9.20;;;6.70;;
8007;SDS011;4049;49.468;11.200;2023-02-22T10:50:43;9.90;;;6.60;;
8007;SDS011;4049;49.468;11.200;2023-02-22T10:53:11;10.73;;;6.40;;
8007;SDS011;4049;49.468;11.200;2023-02-22T10:58:40;7.47;;;5.90;;
8007;SDS011;4049;49.468;11.200;2023-02-22T11:01:22;10.07;;;5.97;;
8007;SDS011;4049;49.468;11.200;2023-02-22T11:04:00;9.87;;;6.57;;
8007;SDS011;4049;49.468;11.200;2023-02-22T11:06:30;8.27;;;5.60;;
8007;SDS011;4049;49.468;11.200;2023-02-22T11:09:04;8.53;;;5.83;;
8007;SDS011;4049;49.468;11.200;2023-02-22T11:11:34;7.53;;;6.00;;
8007;SDS011;4049;49.468;11.200;2023-02-22T11:14:02;9.03;;;5.50;;
8007;SDS011;4049;49.468;11.200;2023-02-22T11:16:31;8.03;;;5.40;;
8007;SDS011;4049;49.468;11.200;2023-02-22T11:19:02;7.60;;;5.47;;
8007;SDS011;4049;49.468;11.200;2023-02-22T11:21:36;7.90;;;4.80;;
8007;SDS011;4049;49.468;11.200;2023-02-22T11:24:05;6.03;;;4.50;;
8007;SDS011;4049;49.468;11.200;2023-02-22T11:26:36;6.97;;;4.97;;
8007;SDS011;4049;49.468;11.200;2023-02-22T11:29:10;6.37;;;4.60;;
8007;SDS011;4049;49.468;11.200;2023-02-22T11:31:42;6.00;;;4.13;;
8007;SDS011;4049;49.468;11.200;2023-02-22T11:34:31;5.70;;;3.80;;
8007;SDS011;4049;49.468;11.200;2023-02-22T11:37:14;5.03;;;3.17;;
8007;SDS011;4049;49.468;11.200;2023-02-22T11:39:46;7.07;;;5.03;;
8007;SDS011;4049;49.468;11.200;2023-02-22T11:42:22;4.87;;;3.50;;
8007;SDS011;4049;49.468;11.200;2023-02-22T11:47:44;3.53;;;2.77;;
8007;SDS011;4049;49.468;11.200;2023-02-22T11:52:53;3.93;;;3.13;;
8007;SDS011;4049;49.468;11.200;2023-02-22T11:55:30;3.60;;;2.83;;
8007;SDS011;4049;49.468;11.200;2023-02-22T11:58:03;3.83;;;2.67;;
8007;SDS011;4049;49.468;11.200;2023-02-22T12:00:43;3.43;;;2.73;;
8007;SDS011;4049;49.468;11.200;2023-02-22T12:03:27;3.67;;;2.70;;
8007;SDS011;4049;49.468;11.200;2023-02-22T12:06:26;3.93;;;2.80;;
8007;SDS011;4049;49.468;11.200;2023-02-22T12:09:06;3.57;;;2.43;;
8007;SDS011;4049;49.468;11.200;2023-02-22T12:11:40;7.03;;;3.03;;
8007;SDS011;4049;49.468;11.200;2023-02-22T12:14:19;3.17;;;2.50;;
8007;SDS011;4049;49.468;11.200;2023-02-22T12:16:58;4.57;;;3.03;;
8007;SDS011;4049;49.468;11.200;2023-02-22T12:19:45;3.00;;;2.33;;
8007;SDS011;4049;49.468;11.200;2023-02-22T12:22:16;3.13;;;2.40;;
8007;SDS011;4049;49.468;11.200;2023-02-22T12:24:47;4.50;;;2.70;;
8007;SDS011;4049;49.468;11.200;2023-02-22T12:27:19;3.00;;;2.27;;
8007;SDS011;4049;49.468;11.200;2023-02-22T12:29:51;3.47;;;2.40;;
8007;SDS011;4049;49.468;11.200;2023-02-22T12:32:23;4.70;;;2.33;;
8007;SDS011;4049;49.468;11.200;2023-02-22T12:34:58;3.17;;;2.20;;
8007;SDS011;4049;49.468;11.200;2023-02-22T12:37:32;4.03;;;2.50;;
8007;SDS011;4049;49.468;11.200;2023-02-22T12:40:06;3.63;;;2.43;;
8007;SDS011;4049;49.468;11.200;2023-02-22T12:42:43;2.73;;;1.90;;
8007;SDS011;4049;49.468;11.200;2023-02-22T12:45:16;2.83;;;2.07;;
8007;SDS011;4049;49.468;11.200;2023-02-22T12:47:51;2.10;;;1.87;;
8007;SDS011;4049;49.468;11.200;2023-02-22T12:50:26;2.73;;;2.13;;
8007;SDS011;4049;49.468;11.200;2023-02-22T12:53:00;2.47;;;1.97;;
8007;SDS011;4049;49.468;11.200;2023-02-22T12:55:39;3.00;;;2.30;;
8007;SDS011;4049;49.468;11.200;2023-02-22T12:58:14;3.00;;;2.00;;
8007;SDS011;4049;49.468;11.200;2023-02-22T13:00:50;3.10;;;1.87;;
8007;SDS011;4049;49.468;11.200;2023-02-22T13:03:29;2.13;;;1.83;;
8007;SDS011;4049;49.468;11.200;2023-02-22T13:06:03;2.77;;;1.90;;
8007;SDS011;4049;49.468;11.200;2023-02-22T13:08:44;2.63;;;1.83;;
8007;SDS011;4049;49.468;11.200;2023-02-22T13:11:20;3.37;;;2.10;;
8007;SDS011;4049;49.468;11.200;2023-02-22T13:13:55;2.53;;;1.70;;
8007;SDS011;4049;49.468;11.200;2023-02-22T13:16:34;3.50;;;2.00;;
8007;SDS011;4049;49.468;11.200;2023-02-22T13:19:10;2.40;;;1.80;;
8007;SDS011;4049;49.468;11.200;2023-02-22T13:21:48;2.60;;;1.80;;
8007;SDS011;4049;49.468;11.200;2023-02-22T13:24:21;4.17;;;2.07;;
8007;SDS011;4049;49.468;11.200;2023-02-22T13:26:52;3.23;;;1.97;;
8007;SDS011;4049;49.468;11.200;2023-02-22T13:29:23;4.33;;;1.90;;
8007;SDS011;4049;49.468;11.200;2023-02-22T13:32:02;2.73;;;1.63;;
8007;SDS011;4049;49.468;11.200;2023-02-22T13:37:47;3.60;;;1.67;;
8007;SDS011;4049;49.468;11.200;2023-02-22T13:40:33;3.50;;;1.90;;
8007;SDS011;4049;49.468;11.200;2023-02-22T13:43:27;1.70;;;1.60;;
8007;SDS011;4049;49.468;11.200;2023-02-22T13:46:21;2.20;;;1.60;;
8007;SDS011;4049;49.468;11.200;2023-02-22T13:49:26;4.27;;;2.07;;
8007;SDS011;4049;49.468;11.200;2023-02-22T13:52:01;3.30;;;1.70;;
8007;SDS011;4049;49.468;11.200;2023-02-22T13:54:35;1.50;;;1.40;;
8007;SDS011;4049;49.468;11.200;2023-02-22T13:57:17;1.70;;;1.40;;
8007;SDS011;4049;49.468;11.200;2023-02-22T13:59:47;2.40;;;1.60;;
8007;SDS011;4049;49.468;11.200;2023-02-22T14:02:32;2.73;;;1.50;;
8007;SDS011;4049;49.468;11.200;2023-02-22T14:11:05;5.37;;;1.63;;
8007;SDS011;4049;49.468;11.200;2023-02-22T14:14:15;1.83;;;1.40;;
8007;SDS011;4049;49.468;11.200;2023-02-22T14:16:43;2.53;;;1.50;;
8007;SDS011;4049;49.468;11.200;2023-02-22T14:19:14;3.30;;;1.60;;
8007;SDS011;4049;49.468;11.200;2023-02-22T14:21:56;1.67;;;1.30;;
8007;SDS011;4049;49.468;11.200;2023-02-22T14:24:26;1.50;;;1.20;;
8007;SDS011;4049;49.468;11.200;2023-02-22T14:26:55;1.43;;;1.33;;
8007;SDS011;4049;49.468;11.200;2023-02-22T14:29:27;1.40;;;1.30;;
8007;SDS011;4049;49.468;11.200;2023-02-22T14:31:59;2.80;;;1.70;;
8007;SDS011;4049;49.468;11.200;2023-02-22T14:34:39;2.27;;;1.50;;
8007;SDS011;4049;49.468;11.200;2023-02-22T14:37:10;2.40;;;1.40;;
8007;SDS011;4049;49.468;11.200;2023-02-22T14:39:42;1.57;;;1.23;;
8007;SDS011;4049;49.468;11.200;2023-02-22T14:42:11;2.37;;;1.43;;
8007;SDS011;4049;49.468;11.200;2023-02-22T14:44:47;1.77;;;1.50;;
8007;SDS011;4049;49.468;11.200;2023-02-22T14:47:22;3.73;;;1.43;;
8007;SDS011;4049;49.468;11.200;2023-02-22T14:49:54;1.30;;;1.20;;
8007;SDS011;4049;49.468;11.200;2023-02-22T14:52:28;1.63;;;1.47;;
8007;SDS011;4049;49.468;11.200;2023-02-22T14:55:01;1.70;;;1.40;;
8007;SDS011;4049;49.468;11.200;2023-02-22T14:57:47;2.97;;;1.33;;
8007;SDS011;4049;49.468;11.200;2023-02-22T15:00:22;2.67;;;1.60;;
8007;SDS011;4049;49.468;11.200;2023-02-22T15:02:56;2.43;;;1.50;;
8007;SDS011;4049;49.468;11.200;2023-02-22T15:05:25;1.67;;;1.40;;
8007;SDS011;4049;49.468;11.200;2023-02-22T15:07:55;3.53;;;1.83;;
8007;SDS011;4049;49.468;11.200;2023-02-22T15:10:24;4.33;;;3.00;;
8007;SDS011;4049;49.468;11.200;2023-02-22T15:12:53;9.57;;;5.50;;
8007;SDS011;4049;49.468;11.200;2023-02-22T15:15:34;6.97;;;4.67;;
8007;SDS011;4049;49.468;11.200;2023-02-22T15:18:11;6.00;;;4.13;;
8007;SDS011;4049;49.468;11.200;2023-02-22T15:20:50;5.10;;;3.87;;
8007;SDS011;4049;49.468;11.200;2023-02-22T15:23:20;4.03;;;2.70;;
8007;SDS011;4049;49.468;11.200;2023-02-22T15:25:49;20.33;;;3.27;;
8007;SDS011;4049;49.468;11.200;2023-02-22T15:28:16;9.10;;;2.70;;
8007;SDS011;4049;49.468;11.200;2023-02-22T15:30:45;4.33;;;2.50;;
8007;SDS011;4049;49.468;11.200;2023-02-22T15:33:14;9.73;;;3.10;;
8007;SDS011;4049;49.468;11.200;2023-02-22T15:35:51;7.90;;;3.03;;
8007;SDS011;4049;49.468;11.200;2023-02-22T15:38:20;4.50;;;2.30;;
8007;SDS011;4049;49.468;11.200;2023-02-22T15:40:59;11.27;;;2.70;;